»·PEaware :: SWA5423 KLAS-KTUS

SWA5423 :: KLAS-KTUS

FLIGHT INFORMATION

Flight Status: Arrived
Operator:
Southwest Airlines
More flights by this operator :: More flights under this callsign
Pilot: Anonymous 15267 (15267)
Aircraft: Boeing 787-8 Dreamliner
(B788)
More flights by this aircraft type
Origin: KLAS Harry Reid Intl
United States
Destination: KTUS Tucson Intl
United States
More flights between these airports :: More routes between these airports
Route: RASLR3 ZAYNE DRK J11 PXR DINGO5
File this flight plan on PilotEdge
Remarks: RMK / SIMBRIEF
Altitude:
(Current/Filed)
33,000ft
Speed:
(Current/Filed)
438kts
Departed: 11-Nov-23 01:56 PM
Arrived: 11-Nov-23 02:55 PM
Distance/Time
Traveled:
317nm/0:59
Distance/Time
To Go:
Arrived

Flight Plot

Page will automatically refresh every two minutes.

Flight plan parsing failed; only flown route is shown


Map Options




Map Legend


Flown Route
Filed Route
Departure Airport
Arrival Airport
Navaid (VOR, NDB)
Fix

Horizontal Profiles

Position Reports

Time Latitude Longitude Heading Altitude Ground
Speed
11-Nov-23 12:56 36.082222 -115.151047 13 2186ft 0kts
11-Nov-23 12:57 36.082222 -115.151047 13 2186ft 0kts
11-Nov-23 12:58 36.082222 -115.151047 13 2186ft 0kts
11-Nov-23 12:59 36.082222 -115.151047 13 2186ft 0kts
11-Nov-23 13:00 36.082222 -115.151047 13 2186ft 0kts
11-Nov-23 13:01 36.082222 -115.151047 13 2186ft 0kts
11-Nov-23 13:02 36.082222 -115.151047 13 2186ft 0kts
11-Nov-23 13:03 36.082222 -115.151047 13 2186ft 0kts
11-Nov-23 13:04 36.082222 -115.151047 13 2214ft 0kts
11-Nov-23 13:05 36.082222 -115.151047 13 2214ft 0kts
11-Nov-23 13:06 36.082222 -115.151047 13 2214ft 0kts
11-Nov-23 13:07 36.082222 -115.151047 13 2214ft 0kts
11-Nov-23 13:08 36.082222 -115.151047 13 2214ft 0kts
11-Nov-23 13:09 36.082222 -115.151047 13 2214ft 0kts
11-Nov-23 13:10 36.082222 -115.151047 13 2186ft 0kts
11-Nov-23 13:11 36.082222 -115.151047 13 2186ft 0kts
11-Nov-23 13:12 36.082222 -115.151047 13 2186ft 0kts
11-Nov-23 13:13 36.082222 -115.151047 13 2186ft 0kts
11-Nov-23 13:14 36.082222 -115.151047 13 2186ft 0kts
11-Nov-23 13:15 36.082222 -115.151047 13 2186ft 0kts
11-Nov-23 13:16 36.082222 -115.151047 13 2186ft 0kts
11-Nov-23 13:17 36.082222 -115.151047 13 2186ft 0kts
11-Nov-23 13:18 36.082222 -115.151047 13 2186ft 0kts
11-Nov-23 13:19 36.082222 -115.151047 13 2186ft 0kts
11-Nov-23 13:20 36.082222 -115.151047 13 2186ft 0kts
11-Nov-23 13:21 36.082222 -115.151047 13 2186ft 0kts
11-Nov-23 13:22 36.082222 -115.151047 13 2186ft 0kts
11-Nov-23 13:23 36.082222 -115.151047 13 2186ft 0kts
11-Nov-23 13:24 36.082222 -115.151047 13 2186ft 0kts
11-Nov-23 13:25 36.082222 -115.151047 13 2186ft 0kts
11-Nov-23 13:26 36.082222 -115.151047 13 2186ft 0kts
11-Nov-23 13:27 36.082222 -115.151047 13 2186ft 0kts
11-Nov-23 13:28 36.082222 -115.151047 13 2186ft 0kts
11-Nov-23 13:29 36.082222 -115.151047 13 2186ft 0kts
11-Nov-23 13:30 36.082222 -115.151047 13 2186ft 0kts
11-Nov-23 13:31 36.082222 -115.151047 13 2186ft 0kts
11-Nov-23 13:32 36.082222 -115.151047 13 2186ft 0kts
11-Nov-23 13:33 36.082222 -115.151047 13 2186ft 0kts
11-Nov-23 13:34 36.082222 -115.151047 13 2186ft 0kts
11-Nov-23 13:35 36.082222 -115.151047 13 2186ft 0kts
11-Nov-23 13:36 36.082222 -115.151047 13 2186ft 0kts
11-Nov-23 13:37 36.082222 -115.151047 13 2186ft 0kts
11-Nov-23 13:38 36.082222 -115.151047 13 2186ft 0kts
11-Nov-23 13:39 36.082222 -115.151047 13 2186ft 0kts
11-Nov-23 13:40 36.081874 -115.151054 332 2186ft 0kts
11-Nov-23 13:41 36.081793 -115.150273 226 2186ft 0kts
11-Nov-23 13:42 36.081805 -115.150257 224 2186ft 0kts
11-Nov-23 13:43 36.081805 -115.150257 224 2186ft 0kts
11-Nov-23 13:44 36.081805 -115.150257 224 2186ft 0kts
11-Nov-23 13:45 36.081805 -115.150257 224 2186ft 0kts
11-Nov-23 13:46 36.081805 -115.150257 224 2186ft 0kts
11-Nov-23 13:47 36.081603 -115.150491 222 2186ft 7kts
11-Nov-23 13:48 36.078536 -115.150927 159 2187ft 8kts
11-Nov-23 13:49 36.077605 -115.144299 94 2187ft 21kts
11-Nov-23 13:50 36.077551 -115.137232 89 2188ft 19kts
11-Nov-23 13:51 36.077567 -115.131019 89 2191ft 16kts
11-Nov-23 13:52 36.077580 -115.125529 90 2188ft 15kts
11-Nov-23 13:53 36.077558 -115.122726 92 2187ft 3kts
11-Nov-23 13:54 36.076560 -115.122581 229 2188ft 20kts
11-Nov-23 13:55 36.076122 -115.160975 268 2938ft 174kts
11-Nov-23 13:57 36.073217 -115.232548 259 4544ft 247kts
11-Nov-23 13:58 36.017159 -115.283069 198 6903ft 283kts
11-Nov-23 13:59 35.948246 -115.246258 136 9777ft 295kts
11-Nov-23 14:00 35.894399 -115.168212 118 12552ft 306kts
11-Nov-23 14:01 35.855731 -115.072290 105 15346ft 319kts
11-Nov-23 14:02 35.830889 -114.964760 104 18020ft 334kts
11-Nov-23 14:03 35.804056 -114.852926 104 19208ft 343kts
11-Nov-23 14:04 35.775557 -114.735721 104 19517ft 389kts
11-Nov-23 14:05 35.743051 -114.603149 103 21432ft 410kts
11-Nov-23 14:06 35.709518 -114.466932 103 23381ft 424kts
11-Nov-23 14:07 35.635863 -114.352047 137 25100ft 447kts
11-Nov-23 14:08 35.539439 -114.252012 136 26652ft 456kts
11-Nov-23 14:09 35.442326 -114.149864 136 28152ft 464kts
11-Nov-23 14:10 35.344367 -114.047161 136 30132ft 460kts
11-Nov-23 14:11 35.285867 -113.917168 99 31614ft 439kts
11-Nov-23 14:12 35.256983 -113.772005 99 33105ft 436kts
11-Nov-23 14:13 35.223061 -113.627800 112 33170ft 445kts
11-Nov-23 14:14 35.162806 -113.495346 114 33133ft 448kts
11-Nov-23 14:15 35.102797 -113.362246 114 33139ft 448kts
11-Nov-23 14:16 35.043189 -113.228416 113 33139ft 448kts
11-Nov-23 14:17 34.983336 -113.095330 113 33139ft 447kts
11-Nov-23 14:18 34.923492 -112.963030 113 33148ft 445kts
11-Nov-23 14:19 34.863617 -112.831069 114 33145ft 444kts
11-Nov-23 14:20 34.803769 -112.699726 114 33174ft 443kts
11-Nov-23 14:21 34.743951 -112.569050 114 33220ft 443kts
11-Nov-23 14:21 34.679410 -112.472048 146 33230ft 458kts
11-Nov-23 14:23 34.538386 -112.412129 159 33234ft 464kts
11-Nov-23 14:24 34.415631 -112.362861 159 33174ft 464kts
11-Nov-23 14:25 34.293218 -112.313323 159 33105ft 463kts
11-Nov-23 14:26 34.171197 -112.264120 159 33091ft 462kts
11-Nov-23 14:26 34.069381 -112.223190 159 33083ft 460kts
11-Nov-23 14:27 33.948396 -112.174695 159 33071ft 453kts
11-Nov-23 14:29 33.810967 -112.119777 159 32643ft 443kts
11-Nov-23 14:30 33.696168 -112.074086 159 31155ft 428kts
11-Nov-23 14:30 33.602840 -112.037034 159 29863ft 419kts
11-Nov-23 14:31 33.494012 -111.993998 159 28185ft 405kts
11-Nov-23 14:32 33.386770 -111.962616 174 26646ft 392kts
11-Nov-23 14:33 33.278988 -111.952101 175 25125ft 383kts
11-Nov-23 14:35 33.156987 -111.938694 175 23306ft 373kts
11-Nov-23 14:35 33.072285 -111.929253 175 22027ft 362kts
11-Nov-23 14:36 32.973923 -111.918373 175 20609ft 350kts
11-Nov-23 14:37 32.878799 -111.902631 152 19199ft 343kts
11-Nov-23 14:38 32.800629 -111.838320 145 17646ft 340kts
11-Nov-23 14:39 32.724324 -111.774992 145 16248ft 328kts
11-Nov-23 14:40 32.650392 -111.714020 144 14933ft 319kts
11-Nov-23 14:41 32.581128 -111.656929 144 13665ft 313kts
11-Nov-23 14:42 32.523208 -111.584242 112 12278ft 304kts
11-Nov-23 14:43 32.493908 -111.492850 109 11161ft 292kts
11-Nov-23 14:44 32.466280 -111.403286 109 9985ft 286kts
11-Nov-23 14:45 32.439496 -111.315829 109 8706ft 279kts
11-Nov-23 14:46 32.413061 -111.230443 109 7532ft 271kts
11-Nov-23 14:47 32.387619 -111.148911 109 6632ft 256kts
11-Nov-23 14:48 32.350645 -111.080955 139 6011ft 253kts
11-Nov-23 14:49 32.286474 -111.056999 169 5958ft 238kts
11-Nov-23 14:50 32.224657 -111.044339 158 5295ft 207kts
11-Nov-23 14:51 32.178767 -111.014686 131 4218ft 157kts
11-Nov-23 14:52 32.150687 -110.979872 135 3442ft 152kts
11-Nov-23 14:53 32.121107 -110.945284 132 2607ft 145kts
11-Nov-23 14:54 32.111582 -110.932127 25 2631ft 5kts
11-Nov-23 14:55 32.113964 -110.934446 314 2627ft 14kts
11-Nov-23 14:56 32.116940 -110.937909 315 2615ft 4kts
11-Nov-23 14:57 32.118106 -110.937943 320 2613ft 1kts
11-Nov-23 14:58 32.119816 -110.939763 9 2617ft 4kts
11-Nov-23 14:59 32.120281 -110.939194 52 2608ft 0kts
11-Nov-23 15:00 32.120281 -110.939194 52 2608ft 0kts
11-Nov-23 15:01 32.120281 -110.939194 52 2608ft 0kts
11-Nov-23 15:02 32.120281 -110.939194 52 2608ft 0kts
11-Nov-23 15:03 32.120281 -110.939194 52 2608ft 0kts
11-Nov-23 15:04 32.120281 -110.939194 52 2608ft 0kts

Navigation Log

Ident Type
Flight plan parsing failed, navigation log unavailable